S/y Squall — ZCIF2 — position and weather

sailwx.info

Track history (hours):
 
Tides and Currents Weather Stations Pressure Air Temp Water Temp Dewpoint Dewpoint Depression Visibility Wind Speed Wind Dir Waves Ship Positions

S/y Squall

Last reported at 2016-Sep-30 10:33 UTC. Time now 2016-Sep-30 16:54 UTC.
Position N 39°30' E 002°24'.

Length 52 m; draft 5.2 m.

Type: Sailing vessel. MMSI: 319811000.

Date/timePositionNaut miles runAvg speedWind from/ knotsBaromVisibWave heightAir tempDewpointWater temp
2016-Sep-30 10:33N 39°30' E 002°24'12 6.0
2016-Sep-30 08:33N 39°33' E 002°38'1 0.3
2016-Sep-30 06:33N 39°34' E 002°38'0 0.0
2016-Sep-30 03:33N 39°34' E 002°38'0 0.0
2016-Sep-30 02:32N 39°34' E 002°38'0 0.0
2016-Sep-29 23:32N 39°34' E 002°38'0 0.0
2016-Sep-29 21:32N 39°34' E 002°38'0 0.0
2016-Sep-29 20:33N 39°34' E 002°38'0 0.0
2016-Sep-29 19:33N 39°34' E 002°38'0 0.0
2016-Sep-29 16:32N 39°34' E 002°38'0 0.0
2016-Sep-29 15:32N 39°34' E 002°38'0 0.0
2016-Sep-29 14:32N 39°34' E 002°38'0 0.0
2016-Sep-29 13:33N 39°34' E 002°38'0 0.0
2016-Sep-29 08:32N 39°34' E 002°38'0 0.0
2016-Sep-29 07:32N 39°34' E 002°38'0 0.0
2016-Sep-29 00:32N 39°34' E 002°38'0 0.0
2016-Sep-28 21:32N 39°34' E 002°38'0 0.0
2016-Sep-28 19:32N 39°34' E 002°38'0 0.0
2016-Sep-28 16:32N 39°34' E 002°38'0 0.0
2016-Sep-28 15:32N 39°34' E 002°38'0 0.0
2016-Sep-28 12:32N 39°34' E 002°38'0 0.0
2016-Sep-28 08:32N 39°34' E 002°38'0 0.0
2016-Sep-28 03:32N 39°34' E 002°38'0 0.0
2016-Sep-28 02:32N 39°34' E 002°38'0 0.0
2016-Sep-28 01:32N 39°34' E 002°38'0 0.0
2016-Sep-27 23:32N 39°34' E 002°38'0 0.0
2016-Sep-27 19:32N 39°34' E 002°38'0 0.0
2016-Sep-27 14:32N 39°34' E 002°38'0 0.0
2016-Sep-27 13:32N 39°34' E 002°38'0 0.0
2016-Sep-27 10:32N 39°34' E 002°38'0 0.0
2016-Sep-27 00:32N 39°34' E 002°38'0 0.0
2016-Sep-26 20:32N 39°34' E 002°38'0 0.0
2016-Sep-26 19:32N 39°34' E 002°38'0 0.0
2016-Sep-26 15:32N 39°34' E 002°38'0 0.0
2016-Sep-26 13:32N 39°34' E 002°38'0 0.0
2016-Sep-26 11:32N 39°34' E 002°38'0 0.0
2016-Sep-26 08:32N 39°34' E 002°38'4 0.7
2016-Sep-26 02:33N 39°31' E 002°34'0 0.0
2016-Sep-26 01:28N 39°31' E 002°34'0 0.0
2016-Sep-26 00:34N 39°31' E 002°34'0 0.0
2016-Sep-25 21:22N 39°31' E 002°34'0 0.0
2016-Sep-25 17:28N 39°31' E 002°34'0 0.0
2016-Sep-25 16:33N 39°31' E 002°34'4 3.6
2016-Sep-25 15:33N 39°28' E 002°32'7 7.1
2016-Sep-25 14:33N 39°30' E 002°24'  
2016-Sep-23 09:33N 39°28' E 002°26'11 3.6
2016-Sep-23 06:28N 39°34' E 002°38'0 0.0
2016-Sep-23 04:31N 39°34' E 002°38'0 0.0
2016-Sep-23 03:31N 39°34' E 002°38'0 0.0
2016-Sep-23 02:31N 39°34' E 002°38'0 0.0
2016-Sep-23 01:31N 39°34' E 002°38'0 0.0
2016-Sep-23 00:31N 39°34' E 002°38'0 0.0
2016-Sep-22 23:31N 39°34' E 002°38'0 0.0
2016-Sep-22 20:31N 39°34' E 002°38'0 0.0
2016-Sep-22 12:28N 39°34' E 002°38'0 0.0
2016-Sep-22 04:31N 39°34' E 002°38'0 0.0
2016-Sep-22 03:31N 39°34' E 002°38'0 0.0
2016-Sep-22 00:31N 39°34' E 002°38'0 0.0
2016-Sep-21 23:31N 39°34' E 002°38'0 0.0
2016-Sep-21 22:31N 39°34' E 002°38'0 0.0
2016-Sep-21 19:31N 39°34' E 002°38'0 0.0
2016-Sep-21 16:31N 39°34' E 002°38'0 0.0
2016-Sep-21 09:31N 39°34' E 002°38'0 0.0
2016-Sep-21 08:31N 39°34' E 002°38'0 0.0
2016-Sep-21 03:31N 39°34' E 002°38'0 0.0
2016-Sep-21 02:31N 39°34' E 002°38'0 0.0
2016-Sep-20 17:31N 39°34' E 002°38'0 0.0
2016-Sep-20 14:31N 39°34' E 002°38'0 0.0
2016-Sep-20 13:31N 39°34' E 002°38'  
Track history (hours):
 
Tides and Currents Weather Stations Pressure Air Temp Water Temp Dewpoint Dewpoint Depression Visibility Wind Speed Wind Dir Waves Ship Positions

S/y Squall

Last reported at 2016-Sep-30 10:33 UTC. Time now 2016-Sep-30 16:54 UTC.
Position N 39°30' E 002°24'.

Length 52 m; draft 5.2 m.

Type: Sailing vessel. MMSI: 319811000.

Date/timePositionNaut miles runAvg speedWind from/ knotsBaromVisibWave heightAir tempDewpointWater temp
2016-Sep-30 10:33N 39°30' E 002°24'12 6.0
2016-Sep-30 08:33N 39°33' E 002°38'1 0.3
2016-Sep-30 06:33N 39°34' E 002°38'0 0.0
2016-Sep-30 03:33N 39°34' E 002°38'0 0.0
2016-Sep-30 02:32N 39°34' E 002°38'0 0.0
2016-Sep-29 23:32N 39°34' E 002°38'0 0.0
2016-Sep-29 21:32N 39°34' E 002°38'0 0.0
2016-Sep-29 20:33N 39°34' E 002°38'0 0.0
2016-Sep-29 19:33N 39°34' E 002°38'0 0.0
2016-Sep-29 16:32N 39°34' E 002°38'0 0.0
2016-Sep-29 15:32N 39°34' E 002°38'0 0.0
2016-Sep-29 14:32N 39°34' E 002°38'0 0.0
2016-Sep-29 13:33N 39°34' E 002°38'0 0.0
2016-Sep-29 08:32N 39°34' E 002°38'0 0.0
2016-Sep-29 07:32N 39°34' E 002°38'0 0.0
2016-Sep-29 00:32N 39°34' E 002°38'0 0.0
2016-Sep-28 21:32N 39°34' E 002°38'0 0.0
2016-Sep-28 19:32N 39°34' E 002°38'0 0.0
2016-Sep-28 16:32N 39°34' E 002°38'0 0.0
2016-Sep-28 15:32N 39°34' E 002°38'0 0.0
2016-Sep-28 12:32N 39°34' E 002°38'0 0.0
2016-Sep-28 08:32N 39°34' E 002°38'0 0.0
2016-Sep-28 03:32N 39°34' E 002°38'0 0.0
2016-Sep-28 02:32N 39°34' E 002°38'0 0.0
2016-Sep-28 01:32N 39°34' E 002°38'0 0.0
2016-Sep-27 23:32N 39°34' E 002°38'0 0.0
2016-Sep-27 19:32N 39°34' E 002°38'0 0.0
2016-Sep-27 14:32N 39°34' E 002°38'0 0.0
2016-Sep-27 13:32N 39°34' E 002°38'0 0.0
2016-Sep-27 10:32N 39°34' E 002°38'0 0.0
2016-Sep-27 00:32N 39°34' E 002°38'0 0.0
2016-Sep-26 20:32N 39°34' E 002°38'0 0.0
2016-Sep-26 19:32N 39°34' E 002°38'0 0.0
2016-Sep-26 15:32N 39°34' E 002°38'0 0.0
2016-Sep-26 13:32N 39°34' E 002°38'0 0.0
2016-Sep-26 11:32N 39°34' E 002°38'0 0.0
2016-Sep-26 08:32N 39°34' E 002°38'4 0.7
2016-Sep-26 02:33N 39°31' E 002°34'0 0.0
2016-Sep-26 01:28N 39°31' E 002°34'0 0.0
2016-Sep-26 00:34N 39°31' E 002°34'0 0.0
2016-Sep-25 21:22N 39°31' E 002°34'0 0.0
2016-Sep-25 17:28N 39°31' E 002°34'0 0.0
2016-Sep-25 16:33N 39°31' E 002°34'4 3.6
2016-Sep-25 15:33N 39°28' E 002°32'7 7.1
2016-Sep-25 14:33N 39°30' E 002°24'  
2016-Sep-23 09:33N 39°28' E 002°26'11 3.6
2016-Sep-23 06:28N 39°34' E 002°38'0 0.0
2016-Sep-23 04:31N 39°34' E 002°38'0 0.0
2016-Sep-23 03:31N 39°34' E 002°38'0 0.0
2016-Sep-23 02:31N 39°34' E 002°38'0 0.0
2016-Sep-23 01:31N 39°34' E 002°38'0 0.0
2016-Sep-23 00:31N 39°34' E 002°38'0 0.0
2016-Sep-22 23:31N 39°34' E 002°38'0 0.0
2016-Sep-22 20:31N 39°34' E 002°38'0 0.0
2016-Sep-22 12:28N 39°34' E 002°38'0 0.0
2016-Sep-22 04:31N 39°34' E 002°38'0 0.0
2016-Sep-22 03:31N 39°34' E 002°38'0 0.0
2016-Sep-22 00:31N 39°34' E 002°38'0 0.0
2016-Sep-21 23:31N 39°34' E 002°38'0 0.0
2016-Sep-21 22:31N 39°34' E 002°38'0 0.0
2016-Sep-21 19:31N 39°34' E 002°38'0 0.0
2016-Sep-21 16:31N 39°34' E 002°38'0 0.0
2016-Sep-21 09:31N 39°34' E 002°38'0 0.0
2016-Sep-21 08:31N 39°34' E 002°38'0 0.0
2016-Sep-21 03:31N 39°34' E 002°38'0 0.0
2016-Sep-21 02:31N 39°34' E 002°38'0 0.0
2016-Sep-20 17:31N 39°34' E 002°38'0 0.0
2016-Sep-20 14:31N 39°34' E 002°38'0 0.0
2016-Sep-20 13:31N 39°34' E 002°38'  

Dump ship's entire track history